Time;durP1;ratioP1;P1;durP2;ratioP2;P2;SDS_P1;SDS_P2;PMS_P1;PMS_P2;Temp;Humidity;BMP_temperature;BMP_pressure;BME280_temperature;BME280_humidity;BME280_pressure;Samples;Min_cycle;Max_cycle;Signal;HPM_P1;HPM_P2
2021/04/13 00:02:46;;;;;;;4.77;3.77;;;;;;;7.98;100.00;96512.31;5034955;28;20194;-89
2021/04/13 00:05:22;;;;;;;4.97;4.50;;;;;;;7.70;100.00;96511.31;5034403;28;20210;-89
2021/04/13 00:07:50;;;;;;;4.23;3.77;;;;;;;7.47;100.00;96502.84;5035139;28;20190;-90
2021/04/13 00:10:20;;;;;;;4.70;4.03;;;;;;;7.68;100.00;96514.03;5034665;28;20285;-91
2021/04/13 00:12:49;;;;;;;4.40;3.70;;;;;;;7.50;100.00;96502.59;5034675;28;20190;-89
2021/04/13 00:15:19;;;;;;;6.10;3.77;;;;;;;7.48;100.00;96507.09;5034661;28;20224;-90
2021/04/13 00:17:48;;;;;;;3.77;3.47;;;;;;;7.46;100.00;96507.25;5034871;28;20183;-90
2021/04/13 00:20:19;;;;;;;5.20;3.63;;;;;;;7.78;100.00;96498.38;5034437;28;20290;-89
2021/04/13 00:22:47;;;;;;;6.30;3.80;;;;;;;7.90;100.00;96506.91;5034548;28;20279;-90
2021/04/13 00:25:24;;;;;;;4.77;4.30;;;;;;;7.68;100.00;96503.59;5034443;28;20225;-91
2021/04/13 00:27:51;;;;;;;5.73;4.27;;;;;;;7.83;100.00;96501.44;5034963;28;20187;-88
2021/04/13 00:30:22;;;;;;;7.83;4.43;;;;;;;7.82;100.00;96505.81;5034550;28;20281;-90
2021/04/13 00:32:56;;;;;;;6.37;4.00;;;;;;;7.88;100.00;96498.38;5034838;28;20573;-90
2021/04/13 00:35:30;;;;;;;7.07;4.30;;;;;;;7.89;100.00;96500.03;5034391;28;20183;-91
2021/04/13 00:38:22;;;;;;;6.70;4.60;;;;;;;7.93;100.00;96501.41;5034562;28;20579;-90
2021/04/13 00:40:52;;;;;;;4.93;3.77;;;;;;;7.69;100.00;96501.78;5034240;28;20266;-89
2021/04/13 00:43:24;;;;;;;4.47;4.10;;;;;;;7.30;100.00;96492.06;5033992;28;20187;-89
2021/04/13 00:45:52;;;;;;;4.97;4.47;;;;;;;7.04;100.00;96480.44;5033993;28;20282;-89
2021/04/13 00:48:28;;;;;;;3.80;3.30;;;;;;;7.31;100.00;96475.44;5033905;28;20237;-90
2021/04/13 00:51:02;;;;;;;4.53;3.10;;;;;;;7.47;100.00;96479.31;5034022;28;20253;-90
2021/04/13 00:53:33;;;;;;;4.30;3.67;;;;;;;7.20;100.00;96474.69;5033992;28;20221;-89
2021/04/13 00:56:04;;;;;;;4.30;3.90;;;;;;;6.99;100.00;96462.50;5034145;28;20313;-90
2021/04/13 00:58:34;;;;;;;4.17;3.37;;;;;;;6.95;100.00;96457.69;5034193;28;20183;-89
2021/04/13 01:01:09;;;;;;;5.83;4.63;;;;;;;6.93;100.00;96463.06;5034043;28;20658;-91
2021/04/13 01:03:37;;;;;;;5.33;3.70;;;;;;;6.97;100.00;96466.22;5033920;28;20680;-89
2021/04/13 01:06:04;;;;;;;4.37;3.97;;;;;;;6.96;100.00;96461.94;5033677;28;20230;-90
2021/04/13 01:08:35;;;;;;;3.97;3.57;;;;;;;7.26;100.00;96459.31;5033893;28;20256;-89
2021/04/13 01:11:14;;;;;;;4.10;3.70;;;;;;;7.53;100.00;96453.44;5033618;28;20233;-89
2021/04/13 01:13:47;;;;;;;4.20;3.77;;;;;;;7.45;100.00;96465.53;5033644;28;20214;-89
2021/04/13 01:16:14;;;;;;;4.33;3.43;;;;;;;7.12;100.00;96452.66;5034099;28;20637;-89
2021/04/13 01:18:43;;;;;;;4.37;3.67;;;;;;;7.39;100.00;96449.44;5033744;28;20221;-91
2021/04/13 01:21:26;;;;;;;4.80;4.27;;;;;;;7.57;100.00;96454.00;5033502;28;20210;-89
2021/04/13 01:23:56;;;;;;;3.10;2.90;;;;;;;7.38;100.00;96458.25;5033441;28;20207;-89
2021/04/13 01:26:23;;;;;;;7.40;3.40;;;;;;;7.10;100.00;96451.13;5033541;28;20226;-89
2021/04/13 01:28:52;;;;;;;4.20;3.80;;;;;;;7.14;100.00;96439.47;5033193;28;20198;-90
2021/04/13 01:34:08;;;;;;;4.70;4.00;;;;;;;7.59;100.00;96447.69;5032993;28;20191;-90
2021/04/13 01:36:37;;;;;;;4.87;3.63;;;;;;;7.44;100.00;96433.31;5033209;28;20194;-90
2021/04/13 01:39:08;;;;;;;4.80;4.13;;;;;;;7.42;100.00;96430.03;5033310;28;20199;-90
2021/04/13 01:41:47;;;;;;;5.53;5.00;;;;;;;7.39;100.00;96431.13;5033221;28;20203;-89
2021/04/13 01:44:17;;;;;;;7.60;5.37;;;;;;;7.21;100.00;96424.09;5033133;28;20706;-89
2021/04/13 01:46:45;;;;;;;8.40;7.57;;;;;;;7.07;100.00;96423.50;5032664;28;20187;-89
2021/04/13 01:49:13;;;;;;;9.93;8.90;;;;;;;6.92;100.00;96419.56;5033062;28;20239;-89
2021/04/13 01:51:40;;;;;;;9.87;7.00;;;;;;;7.23;100.00;96416.91;5033065;28;20290;-89
2021/04/13 01:54:14;;;;;;;6.40;5.80;;;;;;;7.14;100.00;96431.63;5033340;28;20206;-89
2021/04/13 01:56:52;;;;;;;6.50;5.23;;;;;;;6.95;100.00;96424.53;5032827;28;20226;-90
2021/04/13 01:59:24;;;;;;;18.17;13.57;;;;;;;6.97;100.00;96421.81;5032986;28;20190;-90
2021/04/13 02:01:56;;;;;;;40.10;28.70;;;;;;;7.03;100.00;96421.25;5032777;28;20753;-89
2021/04/13 02:04:29;;;;;;;22.77;16.67;;;;;;;6.70;100.00;96402.31;5032962;28;20214;-90
2021/04/13 02:07:07;;;;;;;8.20;6.60;;;;;;;6.83;100.00;96397.69;5033148;28;20187;-89
2021/04/13 02:09:40;;;;;;;7.83;5.43;;;;;;;6.92;100.00;96406.50;5032795;28;20198;-90
2021/04/13 02:12:12;;;;;;;8.20;4.80;;;;;;;6.84;100.00;96409.78;5032821;28;20198;-89
2021/04/13 02:14:47;;;;;;;6.70;6.10;;;;;;;6.67;100.00;96406.00;5032981;28;20194;-89
2021/04/13 02:17:20;;;;;;;4.97;4.37;;;;;;;6.46;100.00;96399.19;5033052;28;20190;-90
2021/04/13 02:19:50;;;;;;;5.60;4.43;;;;;;;6.62;100.00;96389.09;5032921;28;20187;-90
2021/04/13 02:22:19;;;;;;;5.40;4.27;;;;;;;6.28;100.00;96373.66;5032811;28;20209;-90
2021/04/13 02:24:48;;;;;;;5.73;4.43;;;;;;;6.17;100.00;96366.75;5032544;28;20309;-90
2021/04/13 02:27:18;;;;;;;4.53;4.23;;;;;;;6.41;100.00;96347.34;5032612;28;20248;-90
2021/04/13 02:29:48;;;;;;;6.23;4.63;;;;;;;6.23;100.00;96339.28;5032603;28;20205;-90
2021/04/13 02:32:19;;;;;;;5.07;4.57;;;;;;;6.36;100.00;96339.06;5032841;28;20191;-90
2021/04/13 02:34:50;;;;;;;5.10;4.37;;;;;;;6.48;100.00;96343.25;5032832;28;20562;-89
2021/04/13 02:37:24;;;;;;;6.27;4.43;;;;;;;6.62;100.00;96336.84;5032850;28;20672;-90
2021/04/13 02:39:56;;;;;;;5.10;4.60;;;;;;;6.70;100.00;96354.47;5032592;28;20218;-88
2021/04/13 02:42:26;;;;;;;6.30;5.17;;;;;;;6.52;100.00;96347.25;5032862;28;20306;-89
2021/04/13 02:44:58;;;;;;;5.53;5.00;;;;;;;6.69;100.00;96342.38;5032415;28;20203;-88
2021/04/13 02:47:27;;;;;;;6.00;5.40;;;;;;;6.53;100.00;96338.47;5032796;28;20294;-90
2021/04/13 02:49:56;;;;;;;5.33;4.87;;;;;;;6.47;100.00;96331.16;5032820;28;20735;-90
2021/04/13 02:52:27;;;;;;;5.27;4.80;;;;;;;6.15;100.00;96324.28;5032439;28;20758;-89
2021/04/13 02:54:57;;;;;;;6.10;5.50;;;;;;;6.36;100.00;96313.78;5032388;28;20183;-90
2021/04/13 02:57:28;;;;;;;6.17;5.60;;;;;;;6.21;100.00;96316.91;5032088;28;20277;-90
2021/04/13 02:59:59;;;;;;;9.90;8.03;;;;;;;6.23;100.00;96307.97;5035218;28;20187;-89
2021/04/13 03:02:35;;;;;;;7.47;6.23;;;;;;;6.28;100.00;96316.25;5036127;28;20773;-89
2021/04/13 03:05:05;;;;;;;10.10;8.60;;;;;;;6.49;100.00;96310.97;5035802;28;20218;-89
2021/04/13 03:07:33;;;;;;;12.37;7.73;;;;;;;6.49;100.00;96326.63;5036092;28;20209;-88
2021/04/13 03:10:06;;;;;;;9.40;7.80;;;;;;;6.53;100.00;96320.19;5037270;28;20241;-89
2021/04/13 03:12:37;;;;;;;6.73;4.97;;;;;;;6.53;100.00;96335.03;5036104;28;20567;-89
2021/04/13 03:15:06;;;;;;;6.53;5.30;;;;;;;6.67;100.00;96339.88;5035215;28;20640;-88
2021/04/13 03:17:35;;;;;;;6.73;6.00;;;;;;;6.46;100.00;96347.78;5035940;28;20205;-88
2021/04/13 03:20:07;;;;;;;5.77;5.27;;;;;;;6.29;100.00;96328.34;5035917;28;20253;-89
2021/04/13 03:22:36;;;;;;;7.83;6.60;;;;;;;6.15;100.00;96326.06;5035611;28;20234;-89
2021/04/13 03:25:06;;;;;;;6.80;6.10;;;;;;;5.84;100.00;96310.34;5035280;28;20258;-88
2021/04/13 03:27:35;;;;;;;7.90;5.60;;;;;;;5.87;100.00;96289.22;5035883;28;20639;-88
2021/04/13 03:30:07;;;;;;;5.27;4.77;;;;;;;5.83;100.00;96290.44;5035547;28;20229;-88
2021/04/13 03:32:39;;;;;;;5.37;4.60;;;;;;;5.85;100.00;96288.50;5035725;28;20205;-88
2021/04/13 03:35:09;;;;;;;5.60;5.17;;;;;;;5.91;100.00;96288.00;5035307;28;20227;-88
2021/04/13 03:37:38;;;;;;;5.93;5.43;;;;;;;6.11;100.00;96283.75;5035827;28;20281;-86
2021/04/13 03:40:10;;;;;;;9.80;8.57;;;;;;;6.00;100.00;96278.63;5034967;28;20209;-88
2021/04/13 03:42:39;;;;;;;5.00;4.57;;;;;;;6.00;100.00;96273.41;5033340;28;20333;-89
2021/04/13 03:45:08;;;;;;;5.93;4.57;;;;;;;5.97;100.00;96271.06;5041230;28;20282;-88
2021/04/13 03:47:45;;;;;;;37.53;23.33;;;;;;;6.46;100.00;96284.28;5048716;28;20281;-87
2021/04/13 03:50:22;;;;;;;45.00;25.30;;;;;;;6.52;100.00;96296.81;5034781;28;20186;-88
2021/04/13 03:53:01;;;;;;;12.53;10.27;;;;;;;6.15;100.00;96286.94;5035225;28;20190;-88
2021/04/13 03:55:28;;;;;;;8.43;7.50;;;;;;;6.23;100.00;96254.94;5034538;28;20711;-89
2021/04/13 03:57:55;;;;;;;10.57;6.47;;;;;;;6.12;100.00;96254.06;5034657;28;20270;-89
2021/04/13 04:00:26;;;;;;;12.43;11.13;;;;;;;6.12;100.00;96240.22;5034752;28;20195;-90
2021/04/13 04:02:53;;;;;;;10.13;9.10;;;;;;;6.19;100.00;96223.88;5034909;28;20230;-88
2021/04/13 04:05:23;;;;;;;7.00;6.30;;;;;;;6.32;100.00;96251.56;5034846;28;20229;-88
2021/04/13 04:07:55;;;;;;;15.60;11.60;;;;;;;6.25;100.00;96253.84;5034636;28;20183;-89
2021/04/13 04:10:43;;;;;;;75.97;43.37;;;;;;;6.28;100.00;96252.78;5034012;28;20774;-89
2021/04/13 04:13:25;;;;;;;33.00;25.07;;;;;;;6.34;100.00;96250.47;5034404;28;20206;-88
2021/04/13 04:16:07;;;;;;;17.87;14.90;;;;;;;6.26;100.00;96241.63;5034358;28;20191;-87
2021/04/13 04:18:36;;;;;;;14.93;13.20;;;;;;;6.35;100.00;96246.88;5034846;28;20225;-88
2021/04/13 04:21:16;;;;;;;12.93;11.50;;;;;;;6.57;100.00;96255.47;5034220;28;20197;-88
2021/04/13 04:23:44;;;;;;;15.40;12.50;;;;;;;6.43;100.00;96280.16;5033871;28;20256;-88
2021/04/13 04:26:13;;;;;;;11.67;10.47;;;;;;;6.43;100.00;96280.16;5034358;28;20565;-88
2021/04/13 04:28:42;;;;;;;10.47;8.27;;;;;;;6.41;100.00;96280.31;5034136;28;20289;-89
2021/04/13 04:31:36;;;;;;;9.77;7.80;;;;;;;6.36;100.00;96285.06;5034210;28;20289;-89
2021/04/13 04:34:41;;;;;;;9.80;8.80;;;;;;;6.49;100.00;96281.44;5034278;28;20635;-90
2021/04/13 04:37:22;;;;;;;10.03;9.10;;;;;;;6.64;100.00;96261.78;5034269;28;20296;-88
2021/04/13 04:40:12;;;;;;;10.43;9.10;;;;;;;6.75;100.00;96253.84;5034491;28;20183;-89
2021/04/13 04:42:47;;;;;;;14.57;9.73;;;;;;;6.85;100.00;96291.25;5034074;28;20187;-89
2021/04/13 04:45:16;;;;;;;18.83;14.17;;;;;;;6.76;100.00;96275.59;5033993;28;20202;-88
2021/04/13 04:47:45;;;;;;;16.60;11.37;;;;;;;7.00;100.00;96283.88;5034152;28;20675;-89
2021/04/13 04:50:14;;;;;;;20.80;15.60;;;;;;;6.87;100.00;96278.06;5034331;28;20198;-87
2021/04/13 04:52:42;;;;;;;26.07;16.63;;;;;;;6.84;100.00;96257.44;5033892;28;20198;-89
2021/04/13 04:55:11;;;;;;;16.03;12.83;;;;;;;6.36;100.00;96250.31;5033611;28;20195;-88
2021/04/13 04:57:38;;;;;;;13.90;10.93;;;;;;;6.42;100.00;96245.41;5033826;28;20289;-88
2021/04/13 05:00:07;;;;;;;13.00;8.93;;;;;;;6.64;100.00;96246.13;5033953;28;20233;-89
2021/04/13 05:02:34;;;;;;;11.07;9.03;;;;;;;6.98;100.00;96258.81;5033689;28;20221;-88
2021/04/13 05:05:01;;;;;;;15.67;8.77;;;;;;;7.05;100.00;96278.22;5033851;28;20222;-88
2021/04/13 05:07:28;;;;;;;16.27;10.73;;;;;;;7.06;100.00;96261.56;5033553;28;20209;-89
2021/04/13 05:09:56;;;;;;;11.97;9.93;;;;;;;7.26;100.00;96247.53;5033694;28;20197;-88
2021/04/13 05:12:23;;;;;;;17.77;13.90;;;;;;;7.46;100.00;96240.50;5033327;28;20202;-88
2021/04/13 05:14:50;;;;;;;21.07;15.77;;;;;;;7.42;100.00;96226.06;5033590;28;20195;-88
2021/04/13 05:17:17;;;;;;;43.57;22.23;;;;;;;7.39;100.00;96231.59;5033523;28;20195;-89
2021/04/13 05:19:43;;;;;;;20.70;13.13;;;;;;;7.57;100.00;96255.22;5033533;28;20191;-88
2021/04/13 05:22:10;;;;;;;14.17;9.63;;;;;;;7.56;100.00;96258.81;5032954;28;20191;-89
2021/04/13 05:24:38;;;;;;;19.50;13.33;;;;;;;7.78;100.00;96261.09;5033218;28;20226;-89
2021/04/13 05:27:07;;;;;;;12.20;10.27;;;;;;;8.04;100.00;96253.47;5033296;28;20709;-89
2021/04/13 05:29:34;;;;;;;11.27;10.17;;;;;;;8.16;100.00;96259.31;5033235;28;20202;-89
2021/04/13 05:32:01;;;;;;;13.33;9.83;;;;;;;8.03;100.00;96271.91;5033274;28;20285;-88
2021/04/13 05:34:28;;;;;;;13.20;10.27;;;;;;;8.01;100.00;96284.34;5033051;28;20203;-88
2021/04/13 05:36:56;;;;;;;14.13;7.67;;;;;;;7.79;100.00;96303.78;5032962;28;20229;-88
2021/04/13 05:39:23;;;;;;;9.23;6.90;;;;;;;8.07;100.00;96320.38;5033175;28;20689;-89
2021/04/13 05:41:51;;;;;;;11.50;8.07;;;;;;;7.95;100.00;96314.50;5033386;28;20308;-88
2021/04/13 05:44:21;;;;;;;8.00;7.20;;;;;;;7.95;100.00;96316.28;5033382;28;20249;-89
2021/04/13 05:46:47;;;;;;;11.57;8.23;;;;;;;8.15;100.00;96343.25;5032996;28;20205;-88
2021/04/13 05:49:15;;;;;;;9.60;7.57;;;;;;;8.32;100.00;96327.63;5032892;28;20205;-89
2021/04/13 05:51:42;;;;;;;9.23;6.43;;;;;;;8.37;100.00;96361.25;5032882;28;20390;-89
2021/04/13 05:54:09;;;;;;;5.90;5.40;;;;;;;8.24;100.00;96365.94;5033150;28;20226;-88
2021/04/13 05:56:39;;;;;;;9.00;7.03;;;;;;;8.31;100.00;96360.03;5032567;28;20276;-88
2021/04/13 05:59:09;;;;;;;6.97;6.27;;;;;;;8.53;100.00;96376.41;5033039;28;20226;-88
2021/04/13 06:01:37;;;;;;;10.23;6.90;;;;;;;8.75;100.00;96375.19;5032830;28;20206;-88
2021/04/13 06:04:05;;;;;;;12.43;8.17;;;;;;;8.88;100.00;96385.38;5032887;28;20222;-89
2021/04/13 06:06:31;;;;;;;5.93;4.67;;;;;;;9.23;100.00;96398.56;5032835;28;20234;-88
2021/04/13 06:08:58;;;;;;;5.47;4.87;;;;;;;9.34;100.00;96431.63;5032882;28;20260;-88
2021/04/13 06:11:28;;;;;;;5.43;4.90;;;;;;;9.42;100.00;96431.72;5032886;28;20199;-89
2021/04/13 06:13:57;;;;;;;11.33;9.00;;;;;;;9.50;100.00;96421.31;5032691;28;20202;-89
2021/04/13 06:16:27;;;;;;;9.60;8.60;;;;;;;9.63;100.00;96393.88;5032647;28;20195;-88
2021/04/13 06:18:55;;;;;;;8.17;6.90;;;;;;;9.66;100.00;96415.38;5032630;28;20201;-88
2021/04/13 06:21:22;;;;;;;11.83;9.13;;;;;;;9.92;100.00;96412.03;5032632;28;20341;-89
2021/04/13 06:23:49;;;;;;;10.27;9.17;;;;;;;10.09;100.00;96389.38;5032514;28;20282;-88
2021/04/13 06:26:16;;;;;;;13.87;9.20;;;;;;;10.14;100.00;96387.91;5032074;28;20198;-88
2021/04/13 06:28:43;;;;;;;10.83;8.70;;;;;;;10.17;100.00;96376.28;5032579;28;20232;-88
2021/04/13 06:31:09;;;;;;;7.33;4.83;;;;;;;10.16;100.00;96450.81;5032471;28;20201;-88
2021/04/13 06:33:36;;;;;;;5.07;4.67;;;;;;;10.12;100.00;96476.53;5035314;28;20257;-88
2021/04/13 06:36:07;;;;;;;5.70;5.20;;;;;;;10.16;100.00;96458.69;5036693;28;20245;-89
2021/04/13 06:38:37;;;;;;;6.40;5.30;;;;;;;10.33;100.00;96459.69;5036596;28;20191;-89
2021/04/13 06:41:22;;;;;;;7.40;6.17;;;;;;;10.45;100.00;96458.44;5036737;28;20276;-88
2021/04/13 06:44:38;;;;;;;5.63;4.97;;;;;;;10.50;100.00;96465.88;5036217;28;20182;-89
2021/04/13 06:47:14;;;;;;;11.23;6.73;;;;;;;10.60;100.00;96456.94;4994966;28;20207;-89
2021/04/13 06:49:55;;;;;;;5.20;4.57;;;;;;;10.37;100.00;96453.13;5029429;28;20289;-88
2021/04/13 06:52:40;;;;;;;5.70;4.60;;;;;;;10.47;100.00;96451.25;5036170;28;20278;-88
2021/04/13 06:55:17;;;;;;;8.03;5.03;;;;;;;10.63;100.00;96458.41;5036393;28;20658;-87
2021/04/13 06:58:04;;;;;;;7.90;6.80;;;;;;;10.68;100.00;96464.03;5036046;28;20273;-89
2021/04/13 07:01:00;;;;;;;6.53;5.93;;;;;;;11.07;100.00;96463.59;5036359;28;20199;-88
2021/04/13 07:03:32;;;;;;;10.80;6.10;;;;;;;11.48;100.00;96467.22;5035069;28;20282;-88
2021/04/13 07:06:11;;;;;;;8.37;6.77;;;;;;;11.79;100.00;96467.50;5035820;28;20214;-89
2021/04/13 07:08:43;;;;;;;8.13;6.17;;;;;;;12.22;100.00;96488.50;5036292;28;20389;-89
2021/04/13 07:11:18;;;;;;;5.07;4.67;;;;;;;12.35;100.00;96486.19;5036003;28;20593;-88
2021/04/13 07:13:51;;;;;;;9.37;6.07;;;;;;;12.19;100.00;96488.81;5035710;28;20198;-88
2021/04/13 07:16:24;;;;;;;7.30;4.30;;;;;;;12.19;100.00;96488.81;5035656;28;20278;-88
2021/04/13 07:19:00;;;;;;;6.23;4.90;;;;;;;12.23;100.00;96490.97;5035637;28;20194;-88
2021/04/13 07:21:38;;;;;;;9.37;6.43;;;;;;;12.32;100.00;96482.06;5035496;28;20236;-88
2021/04/13 07:24:13;;;;;;;7.67;5.87;;;;;;;12.29;100.00;96484.22;5035588;28;20214;-88
2021/04/13 07:26:45;;;;;;;4.47;4.10;;;;;;;12.34;100.00;96487.19;5035799;28;20199;-88
2021/04/13 07:29:19;;;;;;;6.07;5.50;;;;;;;12.34;100.00;96489.84;5035723;28;20198;-88
2021/04/13 07:31:53;;;;;;;8.80;5.90;;;;;;;12.54;100.00;96474.53;5035789;28;20277;-88
2021/04/13 07:34:20;;;;;;;11.97;7.80;;;;;;;12.61;100.00;96468.41;5035693;28;20183;-88
2021/04/13 07:36:53;;;;;;;12.60;8.10;;;;;;;12.81;100.00;96460.13;5035592;28;20955;-88
2021/04/13 07:39:24;;;;;;;11.77;8.30;;;;;;;12.78;100.00;96471.84;5035610;28;20193;-88
2021/04/13 07:41:56;;;;;;;9.10;6.97;;;;;;;12.80;100.00;96474.31;5035309;28;20284;-88
2021/04/13 07:44:31;;;;;;;13.17;11.77;;;;;;;12.94;100.00;96460.44;5034358;28;20210;-89
2021/04/13 07:47:08;;;;;;;15.33;10.00;;;;;;;13.25;100.00;96460.53;5035032;28;20285;-88
2021/04/13 07:49:39;;;;;;;23.07;14.47;;;;;;;13.43;100.00;96464.75;5035018;28;20281;-89
2021/04/13 07:52:25;;;;;;;13.00;10.47;;;;;;;13.74;100.00;96462.13;5035411;28;20193;-88
2021/04/13 07:55:00;;;;;;;11.23;9.27;;;;;;;13.80;100.00;96462.28;5035367;28;20237;-88
2021/04/13 07:57:33;;;;;;;12.67;8.93;;;;;;;13.95;100.00;96467.63;5034781;28;20329;-88
2021/04/13 08:00:09;;;;;;;12.87;9.80;;;;;;;14.00;100.00;96467.13;5035136;28;20639;-88
2021/04/13 08:02:36;;;;;;;13.67;8.70;;;;;;;14.55;100.00;96459.94;5035139;28;20186;-88
2021/04/13 08:05:11;;;;;;;12.13;9.20;;;;;;;15.10;100.00;96464.91;5034612;28;20372;-88
2021/04/13 08:07:41;;;;;;;13.13;8.50;;;;;;;14.87;100.00;96474.72;5034795;28;20197;-88
2021/04/13 08:10:19;;;;;;;7.77;6.83;;;;;;;14.21;100.00;96475.22;5034636;28;20201;-88
2021/04/13 08:12:55;;;;;;;8.77;6.70;;;;;;;14.32;100.00;96466.06;5034651;28;20186;-89
2021/04/13 08:15:41;;;;;;;9.30;7.63;;;;;;;14.24;100.00;96452.91;5034921;28;20558;-88
2021/04/13 08:18:11;;;;;;;10.63;6.93;;;;;;;13.65;100.00;96444.72;5034715;28;20253;-88
2021/04/13 08:20:42;;;;;;;24.03;17.53;;;;;;;13.50;100.00;96436.66;5034714;28;20281;-88
2021/04/13 08:23:12;;;;;;;9.33;7.13;;;;;;;13.53;100.00;96436.34;5034809;28;20209;-88
2021/04/13 08:25:43;;;;;;;7.93;6.93;;;;;;;13.23;100.00;96430.00;5034417;28;20274;-88
2021/04/13 08:28:26;;;;;;;9.77;6.60;;;;;;;13.20;100.00;96430.34;5034296;28;20191;-87
2021/04/13 08:34:22;;;;;;;8.53;6.50;;;;;;;13.07;100.00;96428.25;5034352;28;20236;-89
2021/04/13 08:36:53;;;;;;;22.50;14.30;;;;;;;13.04;100.00;96421.50;5034538;28;20210;-88
2021/04/13 08:39:26;;;;;;;37.87;25.13;;;;;;;13.34;100.00;96421.75;5034213;28;20214;-87
2021/04/13 08:42:27;;;;;;;15.57;12.27;;;;;;;13.91;100.00;96423.25;5034545;28;20186;-88
2021/04/13 08:44:59;;;;;;;21.73;15.60;;;;;;;14.72;100.00;96433.19;5034324;28;20202;-88
2021/04/13 08:47:38;;;;;;;15.37;11.60;;;;;;;15.35;100.00;96443.44;5034344;28;20744;-88
2021/04/13 08:50:28;;;;;;;10.20;8.23;;;;;;;15.29;100.00;96439.69;5034191;28;20189;-87
2021/04/13 08:52:56;;;;;;;10.77;8.30;;;;;;;15.06;100.00;96436.31;5033854;28;20219;-88
2021/04/13 08:55:42;;;;;;;8.60;5.67;;;;;;;14.93;100.00;96443.06;5033491;28;20201;-89
2021/04/13 08:58:25;;;;;;;9.70;7.10;;;;;;;15.28;100.00;96430.09;5033969;28;20222;-89
2021/04/13 09:00:54;;;;;;;12.20;9.67;;;;;;;15.25;100.00;96446.34;5033789;28;20187;-88
2021/04/13 09:03:23;;;;;;;16.07;11.23;;;;;;;15.14;100.00;96436.22;5033996;28;20205;-88
2021/04/13 09:06:10;;;;;;;25.33;19.67;;;;;;;15.53;100.00;96425.31;5033912;28;20219;-89
2021/04/13 09:08:49;;;;;;;8.53;7.73;;;;;;;15.23;100.00;96435.13;5033814;28;20191;-89
2021/04/13 09:11:27;;;;;;;12.10;9.20;;;;;;;15.19;100.00;96417.97;5033712;28;20190;-89
2021/04/13 09:14:07;;;;;;;10.07;7.47;;;;;;;15.43;100.00;96422.94;5033811;28;20190;-88
2021/04/13 09:16:38;;;;;;;7.50;6.80;;;;;;;14.87;100.00;96430.56;5033710;28;20187;-89
2021/04/13 09:19:09;;;;;;;8.20;7.10;;;;;;;14.87;100.00;96419.97;5033386;28;20669;-88
2021/04/13 09:21:44;;;;;;;6.47;5.87;;;;;;;14.98;100.00;96414.22;5033375;28;20333;-88
2021/04/13 09:24:16;;;;;;;10.60;6.00;;;;;;;14.78;100.00;96420.22;5033309;28;20191;-88
2021/04/13 09:26:46;;;;;;;7.50;6.80;;;;;;;14.33;100.00;96403.44;5033287;28;20276;-89
2021/04/13 09:29:37;;;;;;;7.07;6.47;;;;;;;14.20;100.00;96394.28;5033523;28;20222;-87
2021/04/13 09:32:06;;;;;;;10.67;7.60;;;;;;;14.22;100.00;96378.25;5033119;28;20640;-88
2021/04/13 09:34:54;;;;;;;9.10;7.13;;;;;;;14.25;100.00;96383.16;5033385;28;20645;-89
2021/04/13 09:37:36;;;;;;;19.37;14.53;;;;;;;14.20;100.00;96374.94;5033317;28;20193;-88
2021/04/13 09:40:33;;;;;;;7.77;6.97;;;;;;;14.32;100.00;96381.47;5033179;28;20190;-88
2021/04/13 09:43:38;;;;;;;8.53;6.70;;;;;;;14.30;100.00;96385.28;5024780;28;20590;-89
2021/04/13 09:46:29;;;;;;;10.00;7.53;;;;;;;14.11;100.00;96371.56;5033357;28;20328;-89
2021/04/13 09:49:14;;;;;;;8.70;6.70;;;;;;;14.24;100.00;96373.59;5032823;28;20191;-88
2021/04/13 09:52:09;;;;;;;9.87;7.30;;;;;;;14.28;100.00;96380.19;5033233;28;20198;-88
2021/04/13 09:54:38;;;;;;;8.90;6.87;;;;;;;14.27;100.00;96376.72;5033172;28;20183;-88
2021/04/13 09:57:41;;;;;;;8.73;7.67;;;;;;;14.27;100.00;96379.34;5032704;28;20237;-88
2021/04/13 10:00:38;;;;;;;9.70;6.83;;;;;;;14.11;100.00;96368.91;5027944;28;20202;-88
2021/04/13 10:03:53;;;;;;;10.07;7.60;;;;;;;14.36;100.00;96358.13;5033035;28;20222;-88
2021/04/13 10:06:26;;;;;;;7.90;7.20;;;;;;;14.41;100.00;96367.16;5033146;28;20229;-89
2021/04/13 10:09:03;;;;;;;6.50;5.90;;;;;;;14.12;100.00;96364.44;5032808;28;20222;-89
2021/04/13 10:12:01;;;;;;;9.50;8.37;;;;;;;14.34;100.00;96368.88;5032884;28;20754;-88
2021/04/13 10:14:56;;;;;;;10.07;8.23;;;;;;;14.48;100.00;96348.75;5032620;28;20194;-88
2021/04/13 10:17:35;;;;;;;17.40;8.70;;;;;;;14.19;100.00;96339.75;5028196;28;20597;-88
2021/04/13 10:20:12;;;;;;;8.80;7.73;;;;;;;14.54;100.00;96323.44;5032718;28;20194;-89
2021/04/13 10:22:56;;;;;;;9.60;7.90;;;;;;;14.23;100.00;96319.06;5032682;28;20194;-89
2021/04/13 10:26:00;;;;;;;8.03;7.23;;;;;;;14.55;100.00;96325.91;5032759;28;20653;-89
2021/04/13 10:29:07;;;;;;;12.20;9.80;;;;;;;14.36;100.00;96329.03;5032512;28;20299;-89
2021/04/13 10:32:07;;;;;;;10.67;8.83;;;;;;;14.13;100.00;96340.50;5032778;28;20191;-89
2021/04/13 10:35:17;;;;;;;13.37;12.00;;;;;;;13.99;100.00;96318.31;5024088;28;20282;-89
2021/04/13 10:38:17;;;;;;;9.50;8.60;;;;;;;14.27;100.00;96307.16;5032804;28;20256;-88
2021/04/13 10:41:25;;;;;;;10.30;8.90;;;;;;;14.35;100.00;96306.25;5030794;28;20589;-89
2021/04/13 10:44:29;;;;;;;8.40;7.23;;;;;;;14.19;100.00;96307.22;5032741;28;20245;-88
2021/04/13 10:47:03;;;;;;;10.33;7.97;;;;;;;14.07;100.00;96295.47;5002573;28;20226;-88
2021/04/13 10:50:05;;;;;;;8.87;7.67;;;;;;;14.03;100.00;96303.75;5032432;28;20218;-88
2021/04/13 10:53:02;;;;;;;7.83;7.03;;;;;;;14.00;100.00;96295.34;5032453;28;20275;-88
2021/04/13 10:55:47;;;;;;;9.77;8.83;;;;;;;13.99;100.00;96298.97;5032182;28;20235;-89
2021/04/13 10:58:46;;;;;;;8.90;8.00;;;;;;;13.81;100.00;96288.72;5032241;28;20195;-88
2021/04/13 11:01:46;;;;;;;10.10;7.90;;;;;;;13.66;100.00;96291.34;5030062;28;20290;-88
2021/04/13 11:04:51;;;;;;;12.73;8.90;;;;;;;13.66;100.00;96286.06;5032467;28;20663;-90
2021/04/13 11:08:12;;;;;;;10.03;7.80;;;;;;;13.78;100.00;96283.81;5032490;28;20230;-90
2021/04/13 11:11:19;;;;;;;7.77;6.90;;;;;;;13.70;100.00;96286.53;4976851;28;20205;-90
2021/04/13 11:14:14;;;;;;;9.30;7.97;;;;;;;13.49;100.00;96277.44;5032422;28;20285;-89
2021/04/13 11:17:02;;;;;;;12.80;10.73;;;;;;;13.57;100.00;96269.44;5032301;28;20190;-88
2021/04/13 11:19:45;;;;;;;45.97;30.37;;;;;;;13.64;100.00;96269.56;5032732;28;20278;-88
2021/04/13 11:22:43;;;;;;;27.67;17.23;;;;;;;13.57;100.00;96279.19;5035714;28;20183;-88
2021/04/13 11:25:47;;;;;;;11.70;8.33;;;;;;;13.48;100.00;96283.72;5035708;28;20210;-89
2021/04/13 11:28:52;;;;;;;11.60;10.30;;;;;;;13.58;100.00;96257.09;5035676;28;20238;-90
2021/04/13 11:32:00;;;;;;;12.23;10.93;;;;;;;13.63;100.00;96267.09;5014073;28;20206;-89
2021/04/13 11:34:44;;;;;;;22.80;16.03;;;;;;;13.55;100.00;96274.09;5035457;28;20186;-90
2021/04/13 11:37:41;;;;;;;9.87;8.87;;;;;;;13.50;100.00;96276.44;5035687;28;20187;-88
2021/04/13 11:40:35;;;;;;;10.07;7.70;;;;;;;13.38;100.00;96269.13;5035370;28;20658;-88
2021/04/13 11:43:03;;;;;;;8.97;7.43;;;;;;;13.33;100.00;96280.19;5017974;28;20316;-89
2021/04/13 11:45:41;;;;;;;8.23;7.40;;;;;;;13.12;100.00;96287.88;5029313;28;20318;-88
2021/04/13 11:48:18;;;;;;;8.00;6.67;;;;;;;13.07;100.00;96273.38;5015502;28;20191;-89
2021/04/13 11:50:56;;;;;;;8.23;6.50;;;;;;;13.11;100.00;96283.59;5015400;28;20195;-90
2021/04/13 11:53:38;;;;;;;8.67;7.77;;;;;;;13.08;100.00;96277.66;5015534;28;20619;-89
2021/04/13 11:56:36;;;;;;;9.87;6.90;;;;;;;13.23;100.00;96287.47;5015272;28;20231;-90
2021/04/13 11:59:22;;;;;;;8.30;7.33;;;;;;;13.13;100.00;96263.97;5015385;28;20659;-89
2021/04/13 12:01:50;;;;;;;11.53;8.17;;;;;;;13.04;100.00;96260.53;5015150;28;20294;-88
2021/04/13 12:04:20;;;;;;;7.80;7.00;;;;;;;12.79;100.00;96259.84;5015029;28;20233;-90
2021/04/13 12:06:56;;;;;;;10.67;9.10;;;;;;;12.73;100.00;96239.44;5015096;28;20197;-90
2021/04/13 12:09:58;;;;;;;10.17;9.13;;;;;;;12.88;100.00;96225.50;5015437;28;20564;-90
2021/04/13 12:12:50;;;;;;;14.20;7.87;;;;;;;12.78;100.00;96226.56;4994655;28;20213;-89
2021/04/13 12:15:58;;;;;;;11.20;9.80;;;;;;;12.77;100.00;96221.47;5015125;28;20655;-89